createdAt,value
2023-04-20T00:00:02.133Z,10.68
2023-04-20T00:02:43.326Z,9.07
2023-04-20T00:05:18.357Z,10.27
2023-04-20T00:08:28.088Z,21.85
2023-04-20T00:14:34.677Z,12.05
2023-04-20T00:17:09.990Z,9.52
2023-04-20T00:20:44.629Z,7.53
2023-04-20T00:23:20.241Z,8.23
2023-04-20T00:27:01.587Z,7.80
2023-04-20T00:33:47.783Z,7.57
2023-04-20T00:40:13.463Z,8.45
2023-04-20T00:43:25.975Z,7.82
2023-04-20T00:46:50.717Z,9.40
2023-04-20T00:49:24.382Z,7.28
2023-04-20T00:55:47.011Z,9.32
2023-04-20T01:01:58.678Z,7.85
2023-04-20T01:07:32.630Z,10.15
2023-04-20T01:13:30.768Z,6.05
2023-04-20T01:16:03.982Z,6.85
2023-04-20T01:18:57.274Z,6.65
2023-04-20T01:21:29.720Z,6.30
2023-04-20T01:24:02.793Z,7.97
2023-04-20T01:26:38.720Z,7.25
2023-04-20T01:29:12.103Z,6.43
2023-04-20T01:31:39.817Z,5.10
2023-04-20T01:34:13.065Z,5.32
2023-04-20T01:36:41.175Z,3.15
2023-04-20T01:39:09.599Z,5.18
2023-04-20T01:41:43.929Z,3.72
2023-04-20T01:44:32.742Z,4.07
2023-04-20T01:47:03.564Z,4.45
2023-04-20T01:49:34.679Z,2.72
2023-04-20T01:52:02.343Z,5.88
2023-04-20T01:54:37.944Z,5.70
2023-04-20T01:57:14.698Z,6.90
2023-04-20T01:59:48.316Z,4.78
2023-04-20T02:02:16.436Z,4.50
2023-04-20T02:04:46.776Z,3.85
2023-04-20T02:07:17.397Z,5.30
2023-04-20T02:09:52.869Z,5.45
2023-04-20T02:12:38.580Z,5.20
2023-04-20T02:15:09.811Z,4.63
2023-04-20T02:17:47.581Z,6.57
2023-04-20T02:20:15.592Z,3.47
2023-04-20T02:22:52.954Z,4.90
2023-04-20T02:25:27.841Z,4.53
2023-04-20T02:27:56.783Z,6.50
2023-04-20T02:30:26.508Z,3.85
2023-04-20T02:32:53.802Z,5.97
2023-04-20T02:35:34.332Z,4.45
2023-04-20T02:38:25.753Z,5.90
2023-04-20T02:40:55.865Z,2.97
2023-04-20T02:43:23.625Z,3.05
2023-04-20T02:45:51.624Z,3.65
2023-04-20T02:48:21.337Z,5.35
2023-04-20T02:50:48.974Z,4.40
2023-04-20T02:53:22.410Z,4.38
2023-04-20T02:56:22.668Z,5.22
2023-04-20T03:06:28.025Z,4.05
2023-04-20T03:09:38.032Z,3.85
2023-04-20T03:20:35.351Z,4.05
2023-04-20T03:23:16.073Z,4.03
2023-04-20T03:25:47.604Z,3.50
2023-04-20T03:28:34.284Z,2.28
2023-04-20T03:31:02.914Z,1.88
2023-04-20T03:33:40.424Z,2.22
2023-04-20T03:36:22.444Z,2.53
2023-04-20T03:38:54.591Z,3.63
2023-04-20T03:41:30.351Z,2.38
2023-04-20T03:44:23.712Z,2.17
2023-04-20T03:47:24.006Z,4.28
2023-04-20T03:49:59.673Z,6.63
2023-04-20T03:52:30.399Z,5.25
2023-04-20T03:55:01.275Z,5.68
2023-04-20T03:57:29.491Z,4.07
2023-04-20T04:00:12.373Z,2.70
2023-04-20T04:02:51.696Z,5.93
2023-04-20T04:05:29.587Z,7.45
2023-04-20T04:08:03.836Z,5.18
2023-04-20T04:10:36.382Z,6.60
2023-04-20T04:13:11.629Z,4.03
2023-04-20T04:15:50.292Z,9.30
2023-04-20T04:18:26.939Z,6.78
2023-04-20T04:21:07.646Z,6.60
2023-04-20T04:23:46.040Z,6.40
2023-04-20T04:26:37.140Z,7.72
2023-04-20T04:29:06.853Z,6.80
2023-04-20T04:31:37.838Z,6.38
2023-04-20T04:34:15.608Z,5.05
2023-04-20T04:36:52.300Z,6.68
2023-04-20T04:39:43.190Z,4.70
2023-04-20T04:42:20.658Z,3.97
2023-04-20T04:44:49.163Z,4.45
2023-04-20T04:47:24.501Z,4.63
2023-04-20T04:49:56.379Z,3.97
2023-04-20T04:52:24.210Z,3.75
2023-04-20T04:54:51.516Z,4.43
2023-04-20T04:57:20.044Z,4.47
2023-04-20T04:59:54.277Z,5.50
2023-04-20T05:02:26.607Z,8.98
2023-04-20T05:05:17.453Z,6.10
2023-04-20T05:07:44.888Z,6.40
2023-04-20T05:10:13.534Z,6.07
2023-04-20T05:13:02.019Z,4.60
2023-04-20T05:15:59.409Z,9.07
2023-04-20T05:18:30.208Z,6.90
2023-04-20T05:21:05.213Z,7.28
2023-04-20T05:23:42.194Z,4.53
2023-04-20T05:26:13.420Z,6.95
2023-04-20T05:28:56.361Z,9.32
2023-04-20T05:35:01.016Z,9.40
2023-04-20T05:37:39.810Z,8.55
2023-04-20T05:40:14.455Z,6.35
2023-04-20T05:42:48.689Z,7.43
2023-04-20T05:45:27.433Z,8.88
2023-04-20T05:48:08.435Z,6.82
2023-04-20T05:50:43.048Z,7.25
2023-04-20T05:53:29.722Z,8.98
2023-04-20T05:56:11.458Z,10.93
2023-04-20T05:59:00.919Z,11.75
2023-04-20T06:01:33.921Z,15.18
2023-04-20T06:04:11.785Z,7.47
2023-04-20T06:07:47.995Z,13.27
2023-04-20T06:10:02.563Z,13.18
2023-04-20T06:12:30.377Z,11.95
2023-04-20T06:15:00.740Z,10.02
2023-04-20T06:17:28.572Z,11.93
2023-04-20T06:20:05.587Z,8.93
2023-04-20T06:22:36.925Z,9.50
2023-04-20T06:28:07.038Z,11.77
2023-04-20T06:30:37.980Z,9.82
2023-04-20T06:33:23.039Z,12.32
2023-04-20T06:35:54.679Z,13.45
2023-04-20T06:38:26.106Z,11.70
2023-04-20T06:44:19.112Z,10.65
2023-04-20T06:47:05.831Z,16.38
2023-04-20T06:49:33.217Z,14.77
2023-04-20T06:52:09.541Z,13.00
2023-04-20T06:54:44.358Z,16.30
2023-04-20T06:57:20.501Z,11.07
2023-04-20T07:00:16.255Z,16.25
2023-04-20T07:03:14.987Z,14.43
2023-04-20T07:05:48.773Z,15.32
2023-04-20T07:08:17.096Z,15.45
2023-04-20T07:10:47.970Z,12.98
2023-04-20T07:13:21.628Z,12.10
2023-04-20T07:15:51.172Z,6.57
2023-04-20T07:18:48.265Z,8.13
2023-04-20T07:21:16.039Z,12.55
2023-04-20T07:24:01.105Z,11.23
2023-04-20T07:26:34.399Z,11.98
2023-04-20T07:29:12.195Z,11.65
2023-04-20T07:36:05.496Z,10.23
2023-04-20T07:43:36.413Z,10.88
2023-04-20T07:46:21.853Z,10.00
2023-04-20T07:48:58.621Z,11.88
2023-04-20T07:54:23.937Z,8.40
2023-04-20T07:56:53.633Z,6.18
2023-04-20T07:59:31.870Z,9.45
2023-04-20T08:02:23.790Z,7.40
2023-04-20T08:05:05.975Z,9.88
2023-04-20T08:07:42.710Z,8.80
2023-04-20T08:10:10.941Z,6.45
2023-04-20T08:20:50.876Z,6.18
2023-04-20T08:24:21.669Z,10.30
2023-04-20T08:31:18.986Z,9.25
2023-04-20T08:33:48.234Z,6.28
2023-04-20T08:36:16.529Z,7.45
2023-04-20T08:38:46.702Z,7.88
2023-04-20T08:41:17.773Z,6.85
2023-04-20T08:43:47.342Z,7.47
2023-04-20T08:46:16.183Z,4.80
2023-04-20T08:48:48.751Z,7.45
2023-04-20T08:51:19.667Z,4.55
2023-04-20T08:53:47.660Z,3.97
2023-04-20T08:56:23.978Z,5.18
2023-04-20T08:58:52.612Z,7.07
2023-04-20T09:01:34.690Z,3.22
2023-04-20T09:04:04.366Z,3.42
2023-04-20T09:06:32.285Z,3.22
2023-04-20T09:09:03.377Z,2.25
2023-04-20T09:11:33.831Z,1.20
2023-04-20T09:14:13.080Z,1.60
2023-04-20T09:17:05.500Z,1.85
2023-04-20T09:19:33.192Z,2.17
2023-04-20T09:22:04.063Z,2.03
2023-04-20T09:24:33.921Z,2.70
2023-04-20T09:27:02.949Z,3.45
2023-04-20T09:29:30.459Z,2.80
2023-04-20T09:31:58.106Z,2.10
2023-04-20T09:34:26.058Z,2.03
2023-04-20T09:36:56.086Z,1.58
2023-04-20T09:39:24.776Z,2.42
2023-04-20T09:41:53.161Z,2.30
2023-04-20T09:44:21.497Z,3.35
2023-04-20T09:46:49.320Z,3.10
2023-04-20T09:49:17.388Z,2.83
2023-04-20T09:51:48.101Z,2.20
2023-04-20T09:54:16.656Z,2.53
2023-04-20T09:56:44.320Z,3.03
2023-04-20T09:59:12.173Z,3.75
2023-04-20T10:01:39.401Z,7.25
2023-04-20T10:04:09.777Z,5.45
2023-04-20T10:06:37.941Z,6.95
2023-04-20T10:09:07.746Z,10.63
2023-04-20T10:11:53.358Z,6.88
2023-04-20T10:14:26.151Z,5.22
2023-04-20T10:17:11.590Z,5.82
2023-04-20T10:19:46.112Z,4.57
2023-04-20T10:22:25.575Z,5.32
2023-04-20T10:24:52.986Z,3.28
2023-04-20T10:27:22.234Z,4.38
2023-04-20T10:29:50.409Z,4.07
2023-04-20T10:32:29.044Z,4.38
2023-04-20T10:35:11.463Z,7.78
2023-04-20T10:37:50.513Z,5.97
2023-04-20T10:40:26.766Z,7.07
2023-04-20T10:42:54.260Z,3.75
2023-04-20T10:45:22.080Z,5.13
2023-04-20T10:47:49.780Z,3.50
2023-04-20T10:50:19.189Z,2.70
2023-04-20T10:52:46.641Z,8.05
2023-04-20T10:55:26.120Z,4.18
2023-04-20T10:57:54.512Z,2.95
2023-04-20T11:00:25.231Z,5.55
2023-04-20T11:02:55.106Z,4.25
2023-04-20T11:05:24.997Z,3.67
2023-04-20T11:07:56.584Z,2.58
2023-04-20T11:10:36.970Z,3.05
2023-04-20T11:13:04.440Z,3.45
2023-04-20T11:15:33.118Z,3.22
2023-04-20T11:18:11.916Z,6.30
2023-04-20T11:20:54.042Z,3.38
2023-04-20T11:23:23.786Z,3.45
2023-04-20T11:25:56.231Z,5.43
2023-04-20T11:28:24.428Z,2.88
2023-04-20T11:30:53.053Z,5.47
2023-04-20T11:33:31.440Z,3.28
2023-04-20T11:36:00.159Z,3.88
2023-04-20T11:38:35.238Z,3.47
2023-04-20T11:41:05.452Z,3.63
2023-04-20T11:43:33.169Z,3.50
2023-04-20T11:46:04.211Z,2.85
2023-04-20T11:48:39.088Z,3.28
2023-04-20T11:51:07.120Z,2.45
2023-04-20T11:53:34.890Z,2.70
2023-04-20T11:56:02.450Z,5.50
2023-04-20T11:58:29.741Z,5.05
2023-04-20T12:00:57.304Z,2.70
2023-04-20T12:03:32.355Z,3.03
2023-04-20T12:06:13.864Z,2.30
2023-04-20T12:08:48.342Z,2.60
2023-04-20T12:11:30.699Z,3.28
2023-04-20T12:14:05.416Z,2.90
2023-04-20T12:16:43.011Z,2.60
2023-04-20T12:19:14.185Z,6.35
2023-04-20T12:21:44.617Z,3.28
2023-04-20T12:24:12.189Z,2.95
2023-04-20T12:26:47.204Z,3.83
2023-04-20T12:29:20.143Z,2.20
2023-04-20T12:31:50.641Z,2.17
2023-04-20T12:34:18.417Z,2.65
2023-04-20T12:36:45.858Z,3.47
2023-04-20T12:39:13.032Z,1.98
2023-04-20T12:41:43.213Z,3.05
2023-04-20T12:44:11.544Z,2.72
2023-04-20T12:46:58.249Z,2.33
2023-04-20T12:50:25.861Z,1.33
2023-04-20T12:53:28.710Z,1.50
2023-04-20T12:56:01.182Z,3.25
2023-04-20T13:03:29.209Z,2.10
2023-04-20T13:05:57.075Z,2.13
2023-04-20T13:08:24.433Z,1.98
2023-04-20T13:10:51.764Z,1.52
2023-04-20T13:13:19.148Z,3.17
2023-04-20T13:15:46.612Z,2.00
2023-04-20T13:18:15.558Z,1.70
2023-04-20T13:20:42.998Z,2.47
2023-04-20T13:23:10.356Z,1.63
2023-04-20T13:25:38.916Z,1.80
2023-04-20T13:28:06.396Z,1.48
2023-04-20T13:30:33.866Z,1.42
2023-04-20T13:33:01.378Z,1.63
2023-04-20T13:35:28.802Z,1.95
2023-04-20T13:37:56.532Z,2.88
2023-04-20T13:40:24.025Z,1.80
2023-04-20T13:42:51.358Z,2.40
2023-04-20T13:45:18.774Z,1.75
2023-04-20T13:47:47.068Z,2.30
2023-04-20T13:50:14.613Z,1.80
2023-04-20T13:52:42.132Z,1.55
2023-04-20T13:55:10.055Z,2.13
2023-04-20T13:57:37.607Z,1.98
2023-04-20T14:00:05.673Z,3.53
2023-04-20T14:02:33.505Z,1.65
2023-04-20T14:05:01.019Z,2.10
2023-04-20T14:07:28.439Z,7.85
2023-04-20T14:09:56.743Z,1.88
2023-04-20T14:12:24.468Z,2.08
2023-04-20T14:14:52.208Z,3.35
2023-04-20T14:17:19.940Z,2.03
2023-04-20T14:19:47.981Z,2.75
2023-04-20T14:22:18.770Z,1.48
2023-04-20T14:24:48.732Z,1.98
2023-04-20T14:27:17.664Z,1.73
2023-04-20T14:29:47.415Z,1.33
2023-04-20T14:32:17.553Z,2.47
2023-04-20T14:34:47.336Z,1.83
2023-04-20T14:37:39.926Z,1.30
2023-04-20T14:40:14.186Z,1.73
2023-04-20T14:42:44.418Z,1.50
2023-04-20T14:45:12.513Z,1.63
2023-04-20T14:47:41.192Z,1.75
2023-04-20T14:50:13.093Z,1.75
2023-04-20T14:52:41.304Z,1.50
2023-04-20T14:55:12.509Z,1.63
2023-04-20T14:57:40.553Z,2.53
2023-04-20T15:00:10.862Z,1.48
2023-04-20T15:02:41.610Z,3.20
2023-04-20T15:08:43.183Z,2.92
2023-04-20T15:11:16.191Z,1.35
2023-04-20T15:13:47.622Z,1.65
2023-04-20T15:16:15.747Z,2.05
2023-04-20T15:18:55.145Z,2.03
2023-04-20T15:21:30.553Z,2.28
2023-04-20T15:24:09.537Z,1.10
2023-04-20T15:30:08.933Z,0.90
2023-04-20T15:32:36.605Z,1.65
2023-04-20T15:38:52.984Z,1.67
2023-04-20T15:41:28.353Z,1.40
2023-04-20T15:43:58.823Z,1.75
2023-04-20T15:46:35.385Z,1.40
2023-04-20T15:49:03.352Z,1.55
2023-04-20T15:51:30.964Z,1.70
2023-04-20T15:53:58.421Z,1.70
2023-04-20T15:56:25.752Z,1.20
2023-04-20T15:58:53.355Z,1.92
2023-04-20T16:01:21.609Z,1.20
2023-04-20T16:03:50.259Z,1.98
2023-04-20T16:06:28.853Z,1.20
2023-04-20T16:13:01.976Z,2.65
2023-04-20T16:15:48.669Z,1.30
2023-04-20T16:32:41.648Z,1.30
2023-04-20T16:57:32.492Z,1.00
2023-04-20T17:00:56.226Z,1.40
2023-04-20T17:03:33.225Z,0.88
2023-04-20T17:09:31.174Z,1.23
2023-04-20T17:12:16.029Z,1.42
2023-04-20T17:15:06.716Z,1.50
2023-04-20T17:17:54.909Z,1.20
2023-04-20T17:20:59.398Z,1.85
2023-04-20T17:24:13.826Z,1.50
2023-04-20T17:26:54.733Z,1.45
2023-04-20T17:29:57.037Z,0.95
2023-04-20T17:32:41.191Z,1.42
2023-04-20T17:35:13.692Z,1.80
2023-04-20T17:37:57.484Z,3.13
2023-04-20T17:43:30.593Z,1.60
2023-04-20T17:46:18.429Z,1.25
2023-04-20T17:49:28.266Z,1.52
2023-04-20T17:52:22.847Z,1.33
2023-04-20T17:55:02.621Z,1.33
2023-04-20T17:57:52.199Z,1.42
2023-04-20T18:00:34.339Z,1.58
2023-04-20T18:03:26.745Z,1.60
2023-04-20T18:09:00.207Z,1.95
2023-04-20T18:11:40.347Z,1.90
2023-04-20T18:14:38.211Z,1.27
2023-04-20T18:17:10.201Z,2.03
2023-04-20T18:19:47.263Z,1.30
2023-04-20T18:30:52.264Z,1.30
2023-04-20T18:33:28.625Z,1.23
2023-04-20T18:36:00.362Z,1.85
2023-04-20T18:38:43.507Z,1.42
2023-04-20T18:41:20.976Z,1.73
2023-04-20T18:44:11.911Z,2.72
2023-04-20T18:46:57.717Z,1.90
2023-04-20T18:49:40.276Z,1.48
2023-04-20T18:52:09.920Z,1.13
2023-04-20T18:54:43.162Z,2.35
2023-04-20T18:57:15.606Z,1.48
2023-04-20T19:03:11.349Z,1.25
2023-04-20T19:05:44.733Z,2.05
2023-04-20T19:08:27.638Z,1.40
2023-04-20T19:11:05.334Z,3.03
2023-04-20T19:13:52.728Z,3.65
2023-04-20T19:20:27.423Z,2.72
2023-04-20T19:23:04.920Z,2.25
2023-04-20T19:25:32.896Z,3.05
2023-04-20T19:28:08.569Z,2.15
2023-04-20T19:30:36.376Z,1.90
2023-04-20T19:33:41.564Z,2.58
2023-04-20T19:36:19.028Z,2.35
2023-04-20T19:39:01.278Z,6.18
2023-04-20T19:42:27.554Z,3.92
2023-04-20T19:51:09.108Z,7.72
2023-04-20T19:53:37.707Z,5.10
2023-04-20T19:56:06.695Z,6.68
2023-04-20T19:58:45.882Z,5.15
2023-04-20T20:01:16.453Z,3.95
2023-04-20T20:03:47.988Z,5.40
2023-04-20T20:06:16.098Z,4.88
2023-04-20T20:09:09.835Z,5.38
2023-04-20T20:11:48.372Z,7.00
2023-04-20T20:14:16.992Z,5.03
2023-04-20T20:16:45.241Z,5.72
2023-04-20T20:19:21.115Z,4.43
2023-04-20T20:21:51.321Z,3.53
2023-04-20T20:27:17.061Z,5.70
2023-04-20T20:34:22.098Z,5.40
2023-04-20T20:36:51.516Z,3.78
2023-04-20T20:39:20.685Z,3.95
2023-04-20T20:41:51.350Z,6.00
2023-04-20T20:44:18.860Z,1.88
2023-04-20T20:46:57.747Z,2.50
2023-04-20T20:49:39.071Z,3.45
2023-04-20T20:52:43.532Z,5.18
2023-04-20T20:55:14.866Z,4.55
2023-04-20T21:00:42.912Z,3.10
2023-04-20T21:03:22.500Z,5.70
2023-04-20T21:06:43.196Z,3.33
2023-04-20T21:09:44.568Z,3.85
2023-04-20T21:17:50.004Z,5.05
2023-04-20T21:20:21.923Z,3.58
2023-04-20T21:27:16.858Z,5.93
2023-04-20T21:29:45.123Z,4.45
2023-04-20T21:33:07.249Z,3.78
2023-04-20T21:36:07.687Z,3.78
2023-04-20T21:42:59.911Z,3.72
2023-04-20T21:47:00.779Z,3.17
2023-04-20T22:18:24.229Z,5.05
2023-04-20T22:41:25.006Z,2.50
2023-04-20T22:44:02.136Z,3.60
2023-04-20T22:54:18.893Z,5.50
2023-04-20T22:56:57.565Z,5.20
2023-04-20T22:59:33.966Z,3.88
2023-04-20T23:10:59.541Z,4.20
2023-04-20T23:16:24.260Z,3.33
2023-04-20T23:19:51.139Z,4.20
